sensor_id;sensor_type;location;lat;lon;timestamp;P1;durP1;ratioP1;P2;durP2;ratioP2
37284;SDS011;23172;53.550;9.964;2022-09-09T00:31:15;27.65;;;24.95;;
37284;SDS011;23172;53.550;9.964;2022-09-09T00:36:23;27.88;;;25.08;;
37284;SDS011;23172;53.550;9.964;2022-09-09T00:41:31;29.80;;;26.70;;
37284;SDS011;23172;53.550;9.964;2022-09-09T00:46:47;30.25;;;27.15;;
37284;SDS011;23172;53.550;9.964;2022-09-09T00:51:59;29.67;;;26.60;;
37284;SDS011;23172;53.550;9.964;2022-09-09T00:57:13;26.20;;;23.63;;
37284;SDS011;23172;53.550;9.964;2022-09-09T01:02:28;23.83;;;21.60;;
37284;SDS011;23172;53.550;9.964;2022-09-09T01:07:36;24.52;;;22.13;;
37284;SDS011;23172;53.550;9.964;2022-09-09T01:12:38;25.02;;;22.58;;
37284;SDS011;23172;53.550;9.964;2022-09-09T09:28:02;116.60;;;46.72;;
37284;SDS011;23172;53.550;9.964;2022-09-09T09:33:20;132.00;;;37.15;;
37284;SDS011;23172;53.550;9.964;2022-09-09T09:38:26;133.45;;;37.17;;
37284;SDS011;23172;53.550;9.964;2022-09-09T09:43:29;125.78;;;43.13;;
37284;SDS011;23172;53.550;9.964;2022-09-09T09:48:33;144.45;;;41.75;;
37284;SDS011;23172;53.550;9.964;2022-09-09T09:53:36;193.20;;;55.15;;
37284;SDS011;23172;53.550;9.964;2022-09-09T09:58:51;136.88;;;42.55;;
37284;SDS011;23172;53.550;9.964;2022-09-09T10:03:57;155.50;;;50.30;;
37284;SDS011;23172;53.550;9.964;2022-09-09T10:09:00;151.20;;;48.03;;
37284;SDS011;23172;53.550;9.964;2022-09-09T10:14:10;149.48;;;41.85;;
37284;SDS011;23172;53.550;9.964;2022-09-09T10:19:26;141.43;;;41.97;;
37284;SDS011;23172;53.550;9.964;2022-09-09T10:24:45;128.07;;;50.17;;
37284;SDS011;23172;53.550;9.964;2022-09-09T10:30:09;191.23;;;58.95;;
37284;SDS011;23172;53.550;9.964;2022-09-09T10:35:24;143.45;;;45.58;;
37284;SDS011;23172;53.550;9.964;2022-09-09T10:40:31;139.23;;;52.65;;
37284;SDS011;23172;53.550;9.964;2022-09-09T10:45:37;105.53;;;37.45;;
37284;SDS011;23172;53.550;9.964;2022-09-09T10:50:52;159.48;;;55.15;;
37284;SDS011;23172;53.550;9.964;2022-09-09T10:55:59;147.23;;;52.63;;
37284;SDS011;23172;53.550;9.964;2022-09-09T11:01:08;151.30;;;56.13;;
37284;SDS011;23172;53.550;9.964;2022-09-09T11:06:16;220.25;;;82.00;;
37284;SDS011;23172;53.550;9.964;2022-09-09T11:11:21;238.40;;;71.47;;
37284;SDS011;23172;53.550;9.964;2022-09-09T11:16:30;238.82;;;82.15;;
37284;SDS011;23172;53.550;9.964;2022-09-09T11:21:44;157.65;;;56.38;;
37284;SDS011;23172;53.550;9.964;2022-09-09T11:26:49;148.02;;;41.72;;
37284;SDS011;23172;53.550;9.964;2022-09-09T11:31:57;154.52;;;44.65;;
37284;SDS011;23172;53.550;9.964;2022-09-09T11:42:42;164.75;;;42.40;;
37284;SDS011;23172;53.550;9.964;2022-09-09T11:47:50;195.38;;;52.97;;
37284;SDS011;23172;53.550;9.964;2022-09-09T11:53:03;159.05;;;41.60;;
37284;SDS011;23172;53.550;9.964;2022-09-09T11:58:24;123.10;;;34.78;;
37284;SDS011;23172;53.550;9.964;2022-09-09T12:03:32;118.60;;;31.15;;
37284;SDS011;23172;53.550;9.964;2022-09-09T12:08:43;105.03;;;26.90;;
37284;SDS011;23172;53.550;9.964;2022-09-09T12:13:53;96.80;;;33.00;;
37284;SDS011;23172;53.550;9.964;2022-09-09T12:19:02;94.75;;;24.85;;
37284;SDS011;23172;53.550;9.964;2022-09-09T12:24:06;91.35;;;28.00;;
37284;SDS011;23172;53.550;9.964;2022-09-09T12:29:21;127.80;;;29.70;;
37284;SDS011;23172;53.550;9.964;2022-09-09T12:34:31;102.88;;;27.85;;
37284;SDS011;23172;53.550;9.964;2022-09-09T12:39:40;170.55;;;42.22;;
37284;SDS011;23172;53.550;9.964;2022-09-09T12:44:54;135.02;;;32.33;;
37284;SDS011;23172;53.550;9.964;2022-09-09T12:49:57;121.38;;;32.15;;
37284;SDS011;23172;53.550;9.964;2022-09-09T12:55:01;113.63;;;30.73;;
37284;SDS011;23172;53.550;9.964;2022-09-09T13:00:11;115.20;;;31.17;;
37284;SDS011;23172;53.550;9.964;2022-09-09T13:05:17;101.10;;;28.40;;
37284;SDS011;23172;53.550;9.964;2022-09-09T13:10:24;104.95;;;23.23;;
37284;SDS011;23172;53.550;9.964;2022-09-09T13:15:30;83.75;;;25.38;;
37284;SDS011;23172;53.550;9.964;2022-09-09T13:20:32;74.88;;;23.65;;
37284;SDS011;23172;53.550;9.964;2022-09-09T13:25:34;91.57;;;23.83;;
37284;SDS011;23172;53.550;9.964;2022-09-09T13:30:37;49.42;;;18.13;;
37284;SDS011;23172;53.550;9.964;2022-09-09T13:35:45;49.63;;;15.93;;
37284;SDS011;23172;53.550;9.964;2022-09-09T13:40:53;50.55;;;20.42;;
37284;SDS011;23172;53.550;9.964;2022-09-09T13:45:59;55.03;;;23.63;;
37284;SDS011;23172;53.550;9.964;2022-09-09T13:51:03;44.53;;;19.60;;
37284;SDS011;23172;53.550;9.964;2022-09-09T13:56:05;57.28;;;20.80;;
37284;SDS011;23172;53.550;9.964;2022-09-09T14:01:10;53.33;;;16.70;;
37284;SDS011;23172;53.550;9.964;2022-09-09T14:06:12;34.42;;;15.27;;
37284;SDS011;23172;53.550;9.964;2022-09-09T14:11:14;50.05;;;17.70;;
37284;SDS011;23172;53.550;9.964;2022-09-09T14:16:17;54.97;;;24.00;;
37284;SDS011;23172;53.550;9.964;2022-09-09T14:21:20;57.47;;;26.23;;
37284;SDS011;23172;53.550;9.964;2022-09-09T14:26:22;55.38;;;22.90;;
37284;SDS011;23172;53.550;9.964;2022-09-09T14:31:25;44.15;;;20.95;;
37284;SDS011;23172;53.550;9.964;2022-09-09T14:36:27;61.17;;;24.55;;
37284;SDS011;23172;53.550;9.964;2022-09-09T14:41:29;69.60;;;24.60;;
37284;SDS011;23172;53.550;9.964;2022-09-09T14:46:32;48.70;;;17.20;;
37284;SDS011;23172;53.550;9.964;2022-09-09T14:51:34;67.20;;;21.48;;
37284;SDS011;23172;53.550;9.964;2022-09-09T14:56:36;54.03;;;18.73;;
37284;SDS011;23172;53.550;9.964;2022-09-09T15:01:39;69.15;;;28.10;;
37284;SDS011;23172;53.550;9.964;2022-09-09T15:06:41;56.55;;;20.98;;
37284;SDS011;23172;53.550;9.964;2022-09-09T15:11:47;50.38;;;23.85;;
37284;SDS011;23172;53.550;9.964;2022-09-09T15:16:50;50.90;;;19.67;;
37284;SDS011;23172;53.550;9.964;2022-09-09T15:21:52;50.92;;;20.52;;
37284;SDS011;23172;53.550;9.964;2022-09-09T15:26:54;68.80;;;27.40;;
37284;SDS011;23172;53.550;9.964;2022-09-09T15:31:58;58.42;;;23.08;;
37284;SDS011;23172;53.550;9.964;2022-09-09T15:36:59;47.70;;;26.40;;
37284;SDS011;23172;53.550;9.964;2022-09-09T15:42:02;74.93;;;28.75;;
37284;SDS011;23172;53.550;9.964;2022-09-09T15:47:14;57.33;;;29.52;;
37284;SDS011;23172;53.550;9.964;2022-09-09T15:52:23;53.45;;;22.02;;
37284;SDS011;23172;53.550;9.964;2022-09-09T15:57:24;82.30;;;27.52;;
37284;SDS011;23172;53.550;9.964;2022-09-09T16:08:01;49.92;;;24.88;;
37284;SDS011;23172;53.550;9.964;2022-09-09T16:13:11;80.82;;;28.27;;
37284;SDS011;23172;53.550;9.964;2022-09-09T16:18:14;67.97;;;28.98;;
37284;SDS011;23172;53.550;9.964;2022-09-09T16:23:17;86.75;;;33.78;;
37284;SDS011;23172;53.550;9.964;2022-09-09T16:28:20;66.57;;;25.83;;
37284;SDS011;23172;53.550;9.964;2022-09-09T16:33:22;72.85;;;29.73;;
37284;SDS011;23172;53.550;9.964;2022-09-09T16:38:27;82.00;;;30.00;;
37284;SDS011;23172;53.550;9.964;2022-09-09T16:43:28;73.78;;;27.35;;
37284;SDS011;23172;53.550;9.964;2022-09-09T16:48:30;82.40;;;30.00;;
37284;SDS011;23172;53.550;9.964;2022-09-09T16:53:34;73.22;;;29.95;;
37284;SDS011;23172;53.550;9.964;2022-09-09T16:58:48;70.10;;;27.77;;
37284;SDS011;23172;53.550;9.964;2022-09-09T17:03:52;94.28;;;30.50;;
37284;SDS011;23172;53.550;9.964;2022-09-09T17:09:10;81.80;;;32.90;;
37284;SDS011;23172;53.550;9.964;2022-09-09T17:14:13;75.68;;;27.90;;
37284;SDS011;23172;53.550;9.964;2022-09-09T17:19:17;73.90;;;28.63;;
37284;SDS011;23172;53.550;9.964;2022-09-09T17:24:21;79.95;;;26.98;;
37284;SDS011;23172;53.550;9.964;2022-09-09T17:29:23;65.00;;;27.63;;
37284;SDS011;23172;53.550;9.964;2022-09-09T17:34:25;60.28;;;21.67;;
37284;SDS011;23172;53.550;9.964;2022-09-09T17:39:28;51.95;;;26.08;;
37284;SDS011;23172;53.550;9.964;2022-09-09T17:44:30;53.58;;;22.77;;
37284;SDS011;23172;53.550;9.964;2022-09-09T17:49:33;73.70;;;26.98;;
37284;SDS011;23172;53.550;9.964;2022-09-09T17:54:36;83.25;;;26.45;;
37284;SDS011;23172;53.550;9.964;2022-09-09T17:59:38;75.95;;;27.42;;
37284;SDS011;23172;53.550;9.964;2022-09-09T18:04:41;69.82;;;27.60;;
37284;SDS011;23172;53.550;9.964;2022-09-09T18:09:44;59.20;;;27.88;;
37284;SDS011;23172;53.550;9.964;2022-09-09T18:14:46;58.55;;;27.98;;
37284;SDS011;23172;53.550;9.964;2022-09-09T18:19:49;56.53;;;29.17;;
37284;SDS011;23172;53.550;9.964;2022-09-09T18:24:52;52.67;;;24.80;;
37284;SDS011;23172;53.550;9.964;2022-09-09T18:29:54;62.38;;;25.40;;
37284;SDS011;23172;53.550;9.964;2022-09-09T18:34:56;49.10;;;24.23;;
37284;SDS011;23172;53.550;9.964;2022-09-09T18:39:59;63.40;;;26.90;;
37284;SDS011;23172;53.550;9.964;2022-09-09T18:45:01;62.55;;;31.90;;
37284;SDS011;23172;53.550;9.964;2022-09-09T18:50:04;53.28;;;26.42;;
37284;SDS011;23172;53.550;9.964;2022-09-09T18:55:07;60.03;;;29.88;;
37284;SDS011;23172;53.550;9.964;2022-09-09T19:00:10;66.53;;;24.67;;
37284;SDS011;23172;53.550;9.964;2022-09-09T19:05:12;53.83;;;24.40;;
37284;SDS011;23172;53.550;9.964;2022-09-09T19:10:15;55.28;;;32.22;;
37284;SDS011;23172;53.550;9.964;2022-09-09T19:15:18;47.05;;;25.60;;
37284;SDS011;23172;53.550;9.964;2022-09-09T19:20:20;67.38;;;29.45;;
37284;SDS011;23172;53.550;9.964;2022-09-09T19:25:24;87.13;;;53.35;;
37284;SDS011;23172;53.550;9.964;2022-09-09T19:30:26;64.50;;;34.65;;
37284;SDS011;23172;53.550;9.964;2022-09-09T19:35:28;65.18;;;30.05;;
37284;SDS011;23172;53.550;9.964;2022-09-09T19:40:31;71.20;;;30.08;;
37284;SDS011;23172;53.550;9.964;2022-09-09T19:45:35;57.35;;;28.27;;
37284;SDS011;23172;53.550;9.964;2022-09-09T19:50:37;56.05;;;22.13;;
37284;SDS011;23172;53.550;9.964;2022-09-09T19:55:41;54.97;;;23.38;;
37284;SDS011;23172;53.550;9.964;2022-09-09T20:00:43;52.50;;;25.13;;
37284;SDS011;23172;53.550;9.964;2022-09-09T20:05:45;61.85;;;25.17;;
37284;SDS011;23172;53.550;9.964;2022-09-09T20:10:52;56.83;;;23.95;;
37284;SDS011;23172;53.550;9.964;2022-09-09T20:15:55;77.45;;;26.00;;
37284;SDS011;23172;53.550;9.964;2022-09-09T20:20:59;54.47;;;29.00;;
37284;SDS011;23172;53.550;9.964;2022-09-09T20:26:06;78.85;;;32.80;;
37284;SDS011;23172;53.550;9.964;2022-09-09T20:31:10;79.00;;;27.88;;
37284;SDS011;23172;53.550;9.964;2022-09-09T20:36:14;66.97;;;24.83;;
37284;SDS011;23172;53.550;9.964;2022-09-09T20:41:19;52.17;;;23.25;;
37284;SDS011;23172;53.550;9.964;2022-09-09T20:46:23;66.43;;;27.20;;
37284;SDS011;23172;53.550;9.964;2022-09-09T20:51:26;59.97;;;28.27;;
37284;SDS011;23172;53.550;9.964;2022-09-09T20:56:32;59.92;;;23.65;;
37284;SDS011;23172;53.550;9.964;2022-09-09T21:01:36;69.65;;;25.42;;
37284;SDS011;23172;53.550;9.964;2022-09-09T21:06:38;86.05;;;27.98;;
37284;SDS011;23172;53.550;9.964;2022-09-09T21:11:42;60.28;;;26.30;;
37284;SDS011;23172;53.550;9.964;2022-09-09T21:16:43;58.30;;;24.00;;
37284;SDS011;23172;53.550;9.964;2022-09-09T21:21:45;50.78;;;27.52;;
37284;SDS011;23172;53.550;9.964;2022-09-09T21:26:49;67.47;;;28.67;;
37284;SDS011;23172;53.550;9.964;2022-09-09T21:31:53;59.40;;;21.88;;
37284;SDS011;23172;53.550;9.964;2022-09-09T21:36:55;67.25;;;24.77;;
37284;SDS011;23172;53.550;9.964;2022-09-09T21:41:58;65.50;;;26.33;;
37284;SDS011;23172;53.550;9.964;2022-09-09T21:47:00;11.27;;;10.18;;
37284;SDS011;23172;53.550;9.964;2022-09-09T21:52:02;57.92;;;28.38;;
37284;SDS011;23172;53.550;9.964;2022-09-09T21:57:05;59.85;;;25.45;;
37284;SDS011;23172;53.550;9.964;2022-09-09T22:02:07;63.25;;;25.90;;
37284;SDS011;23172;53.550;9.964;2022-09-09T22:07:09;64.22;;;25.65;;
37284;SDS011;23172;53.550;9.964;2022-09-09T22:12:13;70.63;;;23.38;;
37284;SDS011;23172;53.550;9.964;2022-09-09T22:17:14;77.03;;;25.65;;
37284;SDS011;23172;53.550;9.964;2022-09-09T22:22:16;56.83;;;26.27;;
37284;SDS011;23172;53.550;9.964;2022-09-09T22:27:19;43.80;;;22.83;;
37284;SDS011;23172;53.550;9.964;2022-09-09T22:32:21;69.57;;;26.85;;
37284;SDS011;23172;53.550;9.964;2022-09-09T22:37:23;61.70;;;20.40;;
37284;SDS011;23172;53.550;9.964;2022-09-09T22:42:27;81.72;;;28.70;;
37284;SDS011;23172;53.550;9.964;2022-09-09T22:47:29;62.17;;;21.25;;
37284;SDS011;23172;53.550;9.964;2022-09-09T22:52:31;46.15;;;27.65;;
37284;SDS011;23172;53.550;9.964;2022-09-09T22:57:34;72.07;;;36.95;;
37284;SDS011;23172;53.550;9.964;2022-09-09T23:02:36;59.88;;;28.17;;
37284;SDS011;23172;53.550;9.964;2022-09-09T23:07:38;13.87;;;12.37;;
37284;SDS011;23172;53.550;9.964;2022-09-09T23:12:41;81.63;;;36.67;;
37284;SDS011;23172;53.550;9.964;2022-09-09T23:17:43;77.93;;;31.80;;
37284;SDS011;23172;53.550;9.964;2022-09-09T23:22:45;65.38;;;32.92;;
37284;SDS011;23172;53.550;9.964;2022-09-09T23:27:48;60.20;;;25.38;;
37284;SDS011;23172;53.550;9.964;2022-09-09T23:32:50;69.28;;;28.95;;
37284;SDS011;23172;53.550;9.964;2022-09-09T23:37:52;19.30;;;17.30;;
37284;SDS011;23172;53.550;9.964;2022-09-09T23:42:55;76.20;;;40.10;;
37284;SDS011;23172;53.550;9.964;2022-09-09T23:47:56;58.17;;;25.30;;
37284;SDS011;23172;53.550;9.964;2022-09-09T23:52:58;47.63;;;26.88;;
37284;SDS011;23172;53.550;9.964;2022-09-09T23:58:02;59.47;;;28.85;;
